Metar z połowy godziny Komunikat METAR ze strony awiacja.imgw.pl Metar G30 EPKT METAR EPKT 241930Z 11003KT CAVOK 11/09 Q1013 =